createdAt,value
2023-12-02T00:00:03.132Z,11.53
2023-12-02T00:06:57.726Z,12.18
2023-12-02T00:13:40.079Z,13.82
2023-12-02T00:20:22.366Z,10.25
2023-12-02T00:27:05.553Z,11.95
2023-12-02T00:33:48.789Z,10.32
2023-12-02T00:40:31.213Z,9.95
2023-12-02T00:47:13.850Z,9.60
2023-12-02T00:53:59.219Z,12.07
2023-12-02T01:07:23.746Z,10.25
2023-12-02T01:14:06.139Z,10.52
2023-12-02T01:20:48.514Z,11.00
2023-12-02T01:27:31.169Z,9.70
2023-12-02T01:34:13.571Z,10.55
2023-12-02T01:40:58.878Z,9.07
2023-12-02T01:47:43.612Z,8.45
2023-12-02T01:54:26.169Z,9.17
2023-12-02T02:01:08.544Z,9.18
2023-12-02T02:07:50.989Z,7.05
2023-12-02T02:14:33.277Z,8.93
2023-12-02T02:21:22.030Z,7.85
2023-12-02T02:28:04.706Z,9.02
2023-12-02T02:34:47.594Z,17.58
2023-12-02T02:41:30.005Z,17.05
2023-12-02T02:48:12.463Z,16.13
2023-12-02T02:54:54.837Z,14.48
2023-12-02T03:01:40.166Z,18.80
2023-12-02T03:08:22.536Z,13.85
2023-12-02T03:15:05.659Z,15.73
2023-12-02T03:21:47.981Z,15.25
2023-12-02T03:28:30.630Z,14.30
2023-12-02T03:35:12.969Z,10.50
2023-12-02T03:41:56.552Z,9.88
2023-12-02T03:48:41.478Z,9.10
2023-12-02T03:55:23.807Z,8.40
2023-12-02T04:02:09.122Z,8.82
2023-12-02T04:08:51.853Z,9.50
2023-12-02T04:15:34.160Z,7.95
2023-12-02T04:22:20.387Z,8.35
2023-12-02T04:29:02.867Z,8.15
2023-12-02T04:35:47.574Z,8.32
2023-12-02T04:42:29.877Z,8.87
2023-12-02T04:49:16.059Z,7.20
2023-12-02T04:55:58.460Z,7.25
2023-12-02T05:02:43.306Z,7.75
2023-12-02T05:09:25.701Z,7.00
2023-12-02T05:16:08.732Z,6.60
2023-12-02T05:22:51.318Z,6.55
2023-12-02T05:29:34.116Z,7.15
2023-12-02T05:36:16.466Z,6.25
2023-12-02T05:42:59.039Z,7.57
2023-12-02T05:49:43.335Z,6.45
2023-12-02T05:56:25.640Z,6.38
2023-12-02T06:03:08.014Z,7.28
2023-12-02T06:09:50.312Z,6.57
2023-12-02T06:16:32.838Z,6.35
2023-12-02T06:23:15.112Z,5.95
2023-12-02T06:29:57.624Z,5.03
2023-12-02T06:36:39.974Z,5.07
2023-12-02T06:43:22.382Z,5.45
2023-12-02T06:50:05.556Z,4.18
2023-12-02T06:56:48.700Z,5.00
2023-12-02T07:03:32.617Z,5.83
2023-12-02T07:10:17.635Z,5.05
2023-12-02T07:16:59.914Z,5.28
2023-12-02T07:23:42.304Z,5.20
2023-12-02T07:37:10.078Z,10.15
2023-12-02T07:43:52.910Z,7.50
2023-12-02T07:50:35.274Z,13.60
2023-12-02T07:57:17.618Z,14.93
2023-12-02T08:04:00.420Z,14.00
2023-12-02T08:10:42.866Z,24.70
2023-12-02T08:17:25.254Z,14.43
2023-12-02T08:24:08.015Z,5.85
2023-12-02T08:30:50.605Z,4.75
2023-12-02T08:37:32.917Z,5.50
2023-12-02T08:44:16.927Z,3.67
2023-12-02T08:51:00.357Z,4.03
2023-12-02T08:57:42.687Z,5.55
2023-12-02T09:04:25.190Z,6.38
2023-12-02T09:11:07.831Z,6.00
2023-12-02T09:17:56.084Z,7.22
2023-12-02T09:24:41.695Z,5.50
2023-12-02T09:31:25.310Z,7.25
2023-12-02T09:38:07.799Z,8.32
2023-12-02T09:44:59.668Z,8.15
2023-12-02T09:52:35.037Z,6.95
2023-12-02T09:59:37.079Z,6.30
2023-12-02T10:06:22.093Z,7.75
2023-12-02T10:13:29.748Z,7.10
2023-12-02T10:20:14.136Z,6.72
2023-12-02T10:27:05.254Z,7.00
2023-12-02T10:34:48.305Z,6.63
2023-12-02T10:42:05.695Z,5.82
2023-12-02T10:48:48.225Z,7.10
2023-12-02T10:55:33.474Z,6.53
2023-12-02T11:02:32.341Z,7.65
2023-12-02T11:09:44.907Z,7.00
2023-12-02T11:16:42.975Z,8.60
2023-12-02T11:23:45.992Z,19.90
2023-12-02T11:31:07.126Z,18.85
2023-12-02T11:38:18.546Z,26.83
2023-12-02T11:45:21.384Z,45.97
2023-12-02T11:52:28.055Z,25.10
2023-12-02T11:59:17.578Z,23.30
2023-12-02T12:06:14.738Z,22.90
2023-12-02T12:13:00.411Z,24.73
2023-12-02T12:19:42.751Z,21.00
2023-12-02T12:26:25.577Z,18.10
2023-12-02T12:33:14.303Z,18.95
2023-12-02T12:39:56.838Z,12.65
2023-12-02T12:46:43.596Z,11.75
2023-12-02T12:53:31.237Z,12.52
2023-12-02T13:00:17.547Z,13.32
2023-12-02T13:07:11.921Z,12.18
2023-12-02T13:14:04.380Z,14.53
2023-12-02T13:20:48.942Z,13.77
2023-12-02T13:27:57.163Z,11.57
2023-12-02T13:35:15.629Z,19.98
2023-12-02T13:42:06.300Z,42.65
2023-12-02T13:49:10.861Z,33.40
2023-12-02T13:56:13.303Z,39.85
2023-12-02T14:03:36.994Z,33.85
2023-12-02T14:10:24.177Z,27.05
2023-12-02T14:17:39.583Z,23.15
2023-12-02T14:24:55.673Z,27.45
2023-12-02T14:32:12.640Z,23.92
2023-12-02T14:39:09.995Z,24.48
2023-12-02T14:45:57.417Z,21.20
2023-12-02T14:52:45.420Z,20.80
2023-12-02T14:59:29.163Z,26.50
2023-12-02T15:06:12.750Z,20.92
2023-12-02T15:12:56.531Z,23.92
2023-12-02T15:19:45.670Z,75.50
2023-12-02T15:26:28.053Z,119.63
2023-12-02T15:33:18.139Z,42.15
2023-12-02T15:40:00.529Z,38.40
2023-12-02T15:46:46.217Z,77.20
2023-12-02T15:53:29.061Z,75.30
2023-12-02T16:00:13.356Z,49.10
2023-12-02T16:06:56.543Z,38.90
2023-12-02T16:13:41.987Z,29.65
2023-12-02T16:20:24.719Z,25.42
2023-12-02T16:27:07.292Z,24.58
2023-12-02T16:33:49.708Z,23.15
2023-12-02T16:40:32.000Z,21.20
2023-12-02T16:47:31.663Z,22.05
2023-12-02T16:54:15.273Z,38.85
2023-12-02T17:01:03.479Z,81.03
2023-12-02T17:07:45.926Z,74.60
2023-12-02T17:14:31.821Z,68.95
2023-12-02T17:21:46.377Z,52.20
2023-12-02T17:28:28.776Z,51.95
2023-12-02T17:35:11.115Z,52.97
2023-12-02T17:41:53.601Z,52.45
2023-12-02T17:48:35.960Z,52.08
2023-12-02T17:55:18.722Z,55.20
2023-12-02T18:02:01.091Z,43.47
2023-12-02T18:08:43.984Z,38.70
2023-12-02T18:15:26.559Z,38.55
2023-12-02T18:22:16.023Z,35.25
2023-12-02T18:28:58.337Z,33.70
2023-12-02T18:35:40.950Z,39.25
2023-12-02T18:42:23.317Z,50.20
2023-12-02T18:49:08.330Z,83.13
2023-12-02T18:55:50.750Z,120.80
2023-12-02T19:02:33.850Z,72.85
2023-12-02T19:09:16.565Z,64.72
2023-12-02T19:16:00.218Z,62.33
2023-12-02T19:22:42.517Z,84.55
2023-12-02T19:29:27.297Z,70.50
2023-12-02T19:36:10.315Z,45.10
2023-12-02T19:42:52.585Z,59.08
2023-12-02T19:49:35.074Z,57.05
2023-12-02T19:56:17.445Z,63.30
2023-12-02T20:03:01.317Z,67.18
2023-12-02T20:09:44.423Z,69.50
2023-12-02T20:16:27.408Z,67.15
2023-12-02T20:30:22.068Z,94.50
2023-12-02T20:43:52.059Z,62.73
2023-12-02T20:50:37.124Z,99.75
2023-12-02T20:57:19.589Z,59.63
2023-12-02T21:04:04.472Z,63.83
2023-12-02T21:10:47.085Z,37.58
2023-12-02T21:17:29.588Z,37.33
2023-12-02T21:24:13.074Z,39.42
2023-12-02T21:30:59.298Z,38.20
2023-12-02T21:37:41.750Z,39.67
2023-12-02T21:44:24.301Z,41.53
2023-12-02T21:51:28.701Z,73.03
2023-12-02T21:58:11.982Z,52.45
2023-12-02T22:04:54.665Z,53.53
2023-12-02T22:11:42.213Z,59.60
2023-12-02T22:18:24.871Z,51.17
2023-12-02T22:25:07.198Z,43.30
2023-12-02T22:31:49.544Z,42.22
2023-12-02T22:38:38.844Z,39.15
2023-12-02T22:45:24.004Z,41.67
2023-12-02T22:52:06.481Z,40.72
2023-12-02T22:58:50.233Z,40.47
2023-12-02T23:05:33.726Z,36.17
2023-12-02T23:12:37.829Z,37.78
2023-12-02T23:19:45.570Z,36.87
2023-12-02T23:26:29.037Z,36.95
2023-12-02T23:33:16.646Z,35.50
2023-12-02T23:39:59.483Z,36.42
2023-12-02T23:46:41.800Z,36.70
2023-12-02T23:53:24.783Z,38.80
